sensor_id;sensor_type;location;lat;lon;timestamp;temperature;humidity
12481;DHT22;6305;48.398;11.762;2023-09-07T00:00:36;14.70;99.90
12481;DHT22;6305;48.398;11.762;2023-09-07T00:03:04;14.80;99.90
12481;DHT22;6305;48.398;11.762;2023-09-07T00:05:31;14.80;99.90
12481;DHT22;6305;48.398;11.762;2023-09-07T00:07:59;14.80;99.90
12481;DHT22;6305;48.398;11.762;2023-09-07T00:10:26;14.90;99.90
12481;DHT22;6305;48.398;11.762;2023-09-07T00:12:53;14.80;99.90
12481;DHT22;6305;48.398;11.762;2023-09-07T00:15:20;14.70;99.90
12481;DHT22;6305;48.398;11.762;2023-09-07T00:17:47;14.60;99.90
12481;DHT22;6305;48.398;11.762;2023-09-07T00:20:15;14.50;99.90
12481;DHT22;6305;48.398;11.762;2023-09-07T00:22:42;14.50;99.90
12481;DHT22;6305;48.398;11.762;2023-09-07T00:25:10;14.40;99.90
12481;DHT22;6305;48.398;11.762;2023-09-07T00:27:37;14.30;99.90
12481;DHT22;6305;48.398;11.762;2023-09-07T00:30:05;14.30;99.90
12481;DHT22;6305;48.398;11.762;2023-09-07T00:32:35;14.30;99.90
12481;DHT22;6305;48.398;11.762;2023-09-07T00:35:04;14.20;99.90
12481;DHT22;6305;48.398;11.762;2023-09-07T00:37:31;14.20;99.90
12481;DHT22;6305;48.398;11.762;2023-09-07T00:39:58;14.10;99.90
12481;DHT22;6305;48.398;11.762;2023-09-07T00:42:26;14.00;99.90
12481;DHT22;6305;48.398;11.762;2023-09-07T00:44:53;14.00;99.90
12481;DHT22;6305;48.398;11.762;2023-09-07T00:47:21;14.00;99.90
12481;DHT22;6305;48.398;11.762;2023-09-07T00:49:48;13.90;99.90
12481;DHT22;6305;48.398;11.762;2023-09-07T00:52:16;13.90;99.90
12481;DHT22;6305;48.398;11.762;2023-09-07T00:54:43;13.90;99.90
12481;DHT22;6305;48.398;11.762;2023-09-07T00:57:10;13.90;99.90
12481;DHT22;6305;48.398;11.762;2023-09-07T00:59:39;13.80;99.90
12481;DHT22;6305;48.398;11.762;2023-09-07T01:02:06;13.80;99.90
12481;DHT22;6305;48.398;11.762;2023-09-07T01:04:33;13.70;99.90
12481;DHT22;6305;48.398;11.762;2023-09-07T01:07:03;13.70;99.90
12481;DHT22;6305;48.398;11.762;2023-09-07T01:09:35;13.60;99.90
12481;DHT22;6305;48.398;11.762;2023-09-07T01:12:04;13.60;99.90
12481;DHT22;6305;48.398;11.762;2023-09-07T01:14:36;13.60;99.90
12481;DHT22;6305;48.398;11.762;2023-09-07T01:17:05;13.60;99.90
12481;DHT22;6305;48.398;11.762;2023-09-07T01:19:32;13.60;99.90
12481;DHT22;6305;48.398;11.762;2023-09-07T01:22:02;13.60;99.90
12481;DHT22;6305;48.398;11.762;2023-09-07T01:24:30;13.60;99.90
12481;DHT22;6305;48.398;11.762;2023-09-07T01:26:58;13.50;99.90
12481;DHT22;6305;48.398;11.762;2023-09-07T01:29:25;13.50;99.90
12481;DHT22;6305;48.398;11.762;2023-09-07T01:31:54;13.40;99.90
12481;DHT22;6305;48.398;11.762;2023-09-07T01:34:22;13.40;99.90
12481;DHT22;6305;48.398;11.762;2023-09-07T01:36:49;13.40;99.90
12481;DHT22;6305;48.398;11.762;2023-09-07T01:39:17;13.40;99.90
12481;DHT22;6305;48.398;11.762;2023-09-07T01:41:44;13.30;99.90
12481;DHT22;6305;48.398;11.762;2023-09-07T01:44:12;13.30;99.90
12481;DHT22;6305;48.398;11.762;2023-09-07T01:46:38;13.30;99.90
12481;DHT22;6305;48.398;11.762;2023-09-07T01:49:05;13.20;99.90
12481;DHT22;6305;48.398;11.762;2023-09-07T01:51:34;13.20;99.90
12481;DHT22;6305;48.398;11.762;2023-09-07T01:54:01;13.10;99.90
12481;DHT22;6305;48.398;11.762;2023-09-07T01:56:29;13.10;99.90
12481;DHT22;6305;48.398;11.762;2023-09-07T01:58:57;13.10;99.90
12481;DHT22;6305;48.398;11.762;2023-09-07T02:01:25;13.00;99.90
12481;DHT22;6305;48.398;11.762;2023-09-07T02:03:53;12.90;99.90
12481;DHT22;6305;48.398;11.762;2023-09-07T02:06:19;12.90;99.90
12481;DHT22;6305;48.398;11.762;2023-09-07T02:08:46;12.90;99.90
12481;DHT22;6305;48.398;11.762;2023-09-07T02:11:14;12.80;99.90
12481;DHT22;6305;48.398;11.762;2023-09-07T02:13:43;12.80;99.90
12481;DHT22;6305;48.398;11.762;2023-09-07T02:16:10;12.70;99.90
12481;DHT22;6305;48.398;11.762;2023-09-07T02:18:37;12.70;99.90
12481;DHT22;6305;48.398;11.762;2023-09-07T02:21:06;12.70;99.90
12481;DHT22;6305;48.398;11.762;2023-09-07T02:23:33;12.60;99.90
12481;DHT22;6305;48.398;11.762;2023-09-07T02:26:01;12.50;99.90
12481;DHT22;6305;48.398;11.762;2023-09-07T02:28:28;12.40;99.90
12481;DHT22;6305;48.398;11.762;2023-09-07T02:31:02;12.40;99.90
12481;DHT22;6305;48.398;11.762;2023-09-07T02:33:30;12.40;99.90
12481;DHT22;6305;48.398;11.762;2023-09-07T02:35:57;12.40;99.90
12481;DHT22;6305;48.398;11.762;2023-09-07T02:38:24;12.30;99.90
12481;DHT22;6305;48.398;11.762;2023-09-07T02:40:52;12.30;99.90
12481;DHT22;6305;48.398;11.762;2023-09-07T02:43:20;12.30;99.90
12481;DHT22;6305;48.398;11.762;2023-09-07T02:45:48;12.30;99.90
12481;DHT22;6305;48.398;11.762;2023-09-07T02:48:17;12.30;99.90
12481;DHT22;6305;48.398;11.762;2023-09-07T02:50:44;12.20;99.90
12481;DHT22;6305;48.398;11.762;2023-09-07T02:53:14;12.20;99.90
12481;DHT22;6305;48.398;11.762;2023-09-07T02:55:41;12.20;99.90
12481;DHT22;6305;48.398;11.762;2023-09-07T02:58:08;12.20;99.90
12481;DHT22;6305;48.398;11.762;2023-09-07T03:00:41;12.10;99.90
12481;DHT22;6305;48.398;11.762;2023-09-07T03:03:10;12.00;99.90
12481;DHT22;6305;48.398;11.762;2023-09-07T03:05:39;12.00;99.90
12481;DHT22;6305;48.398;11.762;2023-09-07T03:08:07;12.00;99.90
12481;DHT22;6305;48.398;11.762;2023-09-07T03:10:35;12.00;99.90
12481;DHT22;6305;48.398;11.762;2023-09-07T03:13:03;12.00;99.90
12481;DHT22;6305;48.398;11.762;2023-09-07T03:15:30;12.00;99.90
12481;DHT22;6305;48.398;11.762;2023-09-07T03:17:57;11.90;99.90
12481;DHT22;6305;48.398;11.762;2023-09-07T03:20:25;11.90;99.90
12481;DHT22;6305;48.398;11.762;2023-09-07T03:22:54;11.90;99.90
12481;DHT22;6305;48.398;11.762;2023-09-07T03:25:21;11.90;99.90
12481;DHT22;6305;48.398;11.762;2023-09-07T03:27:48;12.00;99.90
12481;DHT22;6305;48.398;11.762;2023-09-07T03:30:16;12.00;99.90
12481;DHT22;6305;48.398;11.762;2023-09-07T03:32:43;12.00;99.90
12481;DHT22;6305;48.398;11.762;2023-09-07T03:35:10;12.00;99.90
12481;DHT22;6305;48.398;11.762;2023-09-07T03:37:37;12.00;99.90
12481;DHT22;6305;48.398;11.762;2023-09-07T03:40:07;12.00;99.90
12481;DHT22;6305;48.398;11.762;2023-09-07T03:42:36;11.90;99.90
12481;DHT22;6305;48.398;11.762;2023-09-07T03:45:04;11.90;99.90
12481;DHT22;6305;48.398;11.762;2023-09-07T03:47:31;11.90;99.90
12481;DHT22;6305;48.398;11.762;2023-09-07T03:49:59;11.90;99.90
12481;DHT22;6305;48.398;11.762;2023-09-07T03:52:28;11.90;99.90
12481;DHT22;6305;48.398;11.762;2023-09-07T03:54:59;11.90;99.90
12481;DHT22;6305;48.398;11.762;2023-09-07T03:57:27;11.90;99.90
12481;DHT22;6305;48.398;11.762;2023-09-07T03:59:56;11.80;99.90
12481;DHT22;6305;48.398;11.762;2023-09-07T04:02:23;11.80;99.90
12481;DHT22;6305;48.398;11.762;2023-09-07T04:04:51;11.80;99.90
12481;DHT22;6305;48.398;11.762;2023-09-07T04:07:19;11.70;99.90
12481;DHT22;6305;48.398;11.762;2023-09-07T04:09:46;11.70;99.90
12481;DHT22;6305;48.398;11.762;2023-09-07T04:12:13;11.70;99.90
12481;DHT22;6305;48.398;11.762;2023-09-07T04:14:41;11.70;99.90
12481;DHT22;6305;48.398;11.762;2023-09-07T04:17:09;11.70;99.90
12481;DHT22;6305;48.398;11.762;2023-09-07T04:19:36;11.70;99.90
12481;DHT22;6305;48.398;11.762;2023-09-07T04:22:03;11.60;99.90
12481;DHT22;6305;48.398;11.762;2023-09-07T04:24:30;11.60;99.90
12481;DHT22;6305;48.398;11.762;2023-09-07T04:26:58;11.50;99.90
12481;DHT22;6305;48.398;11.762;2023-09-07T04:29:27;11.50;99.90
12481;DHT22;6305;48.398;11.762;2023-09-07T04:31:55;11.50;99.90
12481;DHT22;6305;48.398;11.762;2023-09-07T04:34:22;11.40;99.90
12481;DHT22;6305;48.398;11.762;2023-09-07T04:36:51;11.50;99.90
12481;DHT22;6305;48.398;11.762;2023-09-07T04:39:17;11.60;99.90
12481;DHT22;6305;48.398;11.762;2023-09-07T04:41:44;11.60;99.90
12481;DHT22;6305;48.398;11.762;2023-09-07T04:44:11;11.60;99.90
12481;DHT22;6305;48.398;11.762;2023-09-07T04:46:39;11.60;99.90
12481;DHT22;6305;48.398;11.762;2023-09-07T04:49:07;11.60;99.90
12481;DHT22;6305;48.398;11.762;2023-09-07T04:51:34;11.50;99.90
12481;DHT22;6305;48.398;11.762;2023-09-07T04:54:01;11.50;99.90
12481;DHT22;6305;48.398;11.762;2023-09-07T04:56:28;11.50;99.90
12481;DHT22;6305;48.398;11.762;2023-09-07T04:58:55;11.50;99.90
12481;DHT22;6305;48.398;11.762;2023-09-07T05:01:22;11.60;99.90
12481;DHT22;6305;48.398;11.762;2023-09-07T05:03:51;11.70;99.90
12481;DHT22;6305;48.398;11.762;2023-09-07T05:06:21;11.70;99.90
12481;DHT22;6305;48.398;11.762;2023-09-07T05:08:48;11.70;99.90
12481;DHT22;6305;48.398;11.762;2023-09-07T05:11:15;11.80;99.90
12481;DHT22;6305;48.398;11.762;2023-09-07T05:13:42;11.90;99.90
12481;DHT22;6305;48.398;11.762;2023-09-07T05:16:09;11.90;99.90
12481;DHT22;6305;48.398;11.762;2023-09-07T05:18:36;12.00;99.90
12481;DHT22;6305;48.398;11.762;2023-09-07T05:21:11;12.00;99.90
12481;DHT22;6305;48.398;11.762;2023-09-07T05:23:40;12.10;99.90
12481;DHT22;6305;48.398;11.762;2023-09-07T05:26:08;12.20;99.90
12481;DHT22;6305;48.398;11.762;2023-09-07T05:28:35;12.40;99.90
12481;DHT22;6305;48.398;11.762;2023-09-07T05:31:02;12.40;99.90
12481;DHT22;6305;48.398;11.762;2023-09-07T05:33:29;12.50;99.90
12481;DHT22;6305;48.398;11.762;2023-09-07T05:35:56;12.70;99.90
12481;DHT22;6305;48.398;11.762;2023-09-07T05:38:23;12.80;99.90
12481;DHT22;6305;48.398;11.762;2023-09-07T05:40:51;13.00;99.90
12481;DHT22;6305;48.398;11.762;2023-09-07T05:43:20;13.20;99.90
12481;DHT22;6305;48.398;11.762;2023-09-07T05:45:47;13.50;99.90
12481;DHT22;6305;48.398;11.762;2023-09-07T05:48:15;14.00;99.90
12481;DHT22;6305;48.398;11.762;2023-09-07T05:50:44;14.40;99.90
12481;DHT22;6305;48.398;11.762;2023-09-07T05:53:11;14.90;99.90
12481;DHT22;6305;48.398;11.762;2023-09-07T05:55:38;15.30;99.90
12481;DHT22;6305;48.398;11.762;2023-09-07T05:58:08;15.70;99.90
12481;DHT22;6305;48.398;11.762;2023-09-07T06:00:39;16.10;99.90
12481;DHT22;6305;48.398;11.762;2023-09-07T06:03:07;16.50;99.90
12481;DHT22;6305;48.398;11.762;2023-09-07T06:05:35;16.80;99.90
12481;DHT22;6305;48.398;11.762;2023-09-07T06:08:02;17.20;99.90
12481;DHT22;6305;48.398;11.762;2023-09-07T06:10:30;17.50;99.90
12481;DHT22;6305;48.398;11.762;2023-09-07T06:12:58;18.00;99.90
12481;DHT22;6305;48.398;11.762;2023-09-07T06:15:26;18.40;99.90
12481;DHT22;6305;48.398;11.762;2023-09-07T06:17:53;18.60;99.90
12481;DHT22;6305;48.398;11.762;2023-09-07T06:20:21;18.80;99.90
12481;DHT22;6305;48.398;11.762;2023-09-07T06:22:48;18.90;99.90
12481;DHT22;6305;48.398;11.762;2023-09-07T06:25:16;19.20;99.90
12481;DHT22;6305;48.398;11.762;2023-09-07T06:27:44;19.70;99.90
12481;DHT22;6305;48.398;11.762;2023-09-07T06:30:11;20.30;99.90
12481;DHT22;6305;48.398;11.762;2023-09-07T06:32:40;21.10;99.90
12481;DHT22;6305;48.398;11.762;2023-09-07T06:35:09;22.00;99.90
12481;DHT22;6305;48.398;11.762;2023-09-07T06:37:36;22.90;99.90
12481;DHT22;6305;48.398;11.762;2023-09-07T06:40:08;23.90;99.90
12481;DHT22;6305;48.398;11.762;2023-09-07T06:42:37;25.00;99.90
12481;DHT22;6305;48.398;11.762;2023-09-07T06:45:10;26.00;94.50
12481;DHT22;6305;48.398;11.762;2023-09-07T06:47:37;26.70;83.60
12481;DHT22;6305;48.398;11.762;2023-09-07T06:50:06;27.60;76.60
12481;DHT22;6305;48.398;11.762;2023-09-07T06:52:33;28.90;70.20
12481;DHT22;6305;48.398;11.762;2023-09-07T06:55:00;30.10;63.70
12481;DHT22;6305;48.398;11.762;2023-09-07T06:57:28;31.40;59.70
12481;DHT22;6305;48.398;11.762;2023-09-07T06:59:55;32.50;54.60
12481;DHT22;6305;48.398;11.762;2023-09-07T07:02:22;33.30;51.20
12481;DHT22;6305;48.398;11.762;2023-09-07T07:04:49;34.20;49.10
12481;DHT22;6305;48.398;11.762;2023-09-07T07:07:18;35.10;47.00
12481;DHT22;6305;48.398;11.762;2023-09-07T07:09:46;35.90;45.20
12481;DHT22;6305;48.398;11.762;2023-09-07T07:12:13;36.40;43.50
12481;DHT22;6305;48.398;11.762;2023-09-07T07:14:40;36.90;42.40
12481;DHT22;6305;48.398;11.762;2023-09-07T07:17:08;37.40;40.80
12481;DHT22;6305;48.398;11.762;2023-09-07T07:19:35;37.40;40.40
12481;DHT22;6305;48.398;11.762;2023-09-07T07:22:04;37.50;40.30
12481;DHT22;6305;48.398;11.762;2023-09-07T07:24:33;38.10;39.90
12481;DHT22;6305;48.398;11.762;2023-09-07T07:27:01;38.40;38.90
12481;DHT22;6305;48.398;11.762;2023-09-07T07:29:31;38.60;38.40
12481;DHT22;6305;48.398;11.762;2023-09-07T07:31:58;38.70;38.20
12481;DHT22;6305;48.398;11.762;2023-09-07T07:34:25;38.70;37.60
12481;DHT22;6305;48.398;11.762;2023-09-07T07:36:54;38.90;38.00
12481;DHT22;6305;48.398;11.762;2023-09-07T07:39:22;39.30;37.30
12481;DHT22;6305;48.398;11.762;2023-09-07T07:41:50;39.60;36.90
12481;DHT22;6305;48.398;11.762;2023-09-07T07:44:17;39.30;36.20
12481;DHT22;6305;48.398;11.762;2023-09-07T07:46:45;39.20;36.60
12481;DHT22;6305;48.398;11.762;2023-09-07T07:49:13;39.60;36.80
12481;DHT22;6305;48.398;11.762;2023-09-07T07:51:41;40.10;36.30
12481;DHT22;6305;48.398;11.762;2023-09-07T07:54:08;40.30;35.50
12481;DHT22;6305;48.398;11.762;2023-09-07T07:56:35;40.50;35.70
12481;DHT22;6305;48.398;11.762;2023-09-07T07:59:04;40.40;35.60
12481;DHT22;6305;48.398;11.762;2023-09-07T08:01:31;40.50;35.40
12481;DHT22;6305;48.398;11.762;2023-09-07T08:03:59;40.10;34.90
12481;DHT22;6305;48.398;11.762;2023-09-07T08:06:26;39.70;35.40
12481;DHT22;6305;48.398;11.762;2023-09-07T08:08:53;39.40;36.10
12481;DHT22;6305;48.398;11.762;2023-09-07T08:11:20;39.40;36.20
12481;DHT22;6305;48.398;11.762;2023-09-07T08:13:48;39.50;36.20
12481;DHT22;6305;48.398;11.762;2023-09-07T08:16:17;39.80;36.40
12481;DHT22;6305;48.398;11.762;2023-09-07T08:18:44;40.40;35.90
12481;DHT22;6305;48.398;11.762;2023-09-07T08:21:14;41.00;35.20
12481;DHT22;6305;48.398;11.762;2023-09-07T08:23:42;41.10;34.60
12481;DHT22;6305;48.398;11.762;2023-09-07T08:26:09;41.10;33.80
12481;DHT22;6305;48.398;11.762;2023-09-07T08:28:38;40.00;34.90
12481;DHT22;6305;48.398;11.762;2023-09-07T08:31:05;40.20;35.40
12481;DHT22;6305;48.398;11.762;2023-09-07T08:33:33;40.70;35.20
12481;DHT22;6305;48.398;11.762;2023-09-07T08:36:06;41.10;34.10
12481;DHT22;6305;48.398;11.762;2023-09-07T08:38:34;41.20;34.00
12481;DHT22;6305;48.398;11.762;2023-09-07T08:41:02;41.40;34.30
12481;DHT22;6305;48.398;11.762;2023-09-07T08:43:33;41.80;33.80
12481;DHT22;6305;48.398;11.762;2023-09-07T08:46:09;41.90;33.20
12481;DHT22;6305;48.398;11.762;2023-09-07T08:48:42;42.00;33.00
12481;DHT22;6305;48.398;11.762;2023-09-07T08:51:09;42.10;32.10
12481;DHT22;6305;48.398;11.762;2023-09-07T08:53:37;42.00;32.70
12481;DHT22;6305;48.398;11.762;2023-09-07T08:56:07;42.10;32.80
12481;DHT22;6305;48.398;11.762;2023-09-07T08:58:35;41.50;32.60
12481;DHT22;6305;48.398;11.762;2023-09-07T09:01:02;40.70;33.50
12481;DHT22;6305;48.398;11.762;2023-09-07T09:03:29;39.20;34.80
12481;DHT22;6305;48.398;11.762;2023-09-07T09:05:57;39.20;36.00
12481;DHT22;6305;48.398;11.762;2023-09-07T09:08:24;39.50;35.70
12481;DHT22;6305;48.398;11.762;2023-09-07T09:10:59;40.00;35.40
12481;DHT22;6305;48.398;11.762;2023-09-07T09:13:29;40.60;35.00
12481;DHT22;6305;48.398;11.762;2023-09-07T09:15:58;40.50;34.70
12481;DHT22;6305;48.398;11.762;2023-09-07T09:18:25;39.90;35.00
12481;DHT22;6305;48.398;11.762;2023-09-07T09:20:52;39.60;35.60
12481;DHT22;6305;48.398;11.762;2023-09-07T09:23:22;40.10;36.10
12481;DHT22;6305;48.398;11.762;2023-09-07T09:25:49;40.50;35.10
12481;DHT22;6305;48.398;11.762;2023-09-07T09:28:16;40.90;35.10
12481;DHT22;6305;48.398;11.762;2023-09-07T09:30:43;40.80;34.20
12481;DHT22;6305;48.398;11.762;2023-09-07T09:33:10;40.90;34.30
12481;DHT22;6305;48.398;11.762;2023-09-07T09:35:37;41.10;34.50
12481;DHT22;6305;48.398;11.762;2023-09-07T09:38:04;41.40;34.20
12481;DHT22;6305;48.398;11.762;2023-09-07T09:40:33;41.20;34.20
12481;DHT22;6305;48.398;11.762;2023-09-07T09:43:02;40.90;34.30
12481;DHT22;6305;48.398;11.762;2023-09-07T09:45:29;40.50;33.70
12481;DHT22;6305;48.398;11.762;2023-09-07T09:47:58;39.60;34.30
12481;DHT22;6305;48.398;11.762;2023-09-07T09:50:26;39.30;35.80
12481;DHT22;6305;48.398;11.762;2023-09-07T09:52:53;39.60;35.50
12481;DHT22;6305;48.398;11.762;2023-09-07T09:55:22;38.60;36.70
12481;DHT22;6305;48.398;11.762;2023-09-07T09:57:50;39.10;37.10
12481;DHT22;6305;48.398;11.762;2023-09-07T10:00:19;39.80;35.90
12481;DHT22;6305;48.398;11.762;2023-09-07T10:02:58;40.60;34.90
12481;DHT22;6305;48.398;11.762;2023-09-07T10:05:27;41.20;34.00
12481;DHT22;6305;48.398;11.762;2023-09-07T10:08:00;41.80;33.50
12481;DHT22;6305;48.398;11.762;2023-09-07T10:10:34;42.20;32.60
12481;DHT22;6305;48.398;11.762;2023-09-07T10:13:03;42.60;31.80
12481;DHT22;6305;48.398;11.762;2023-09-07T10:15:31;42.70;31.50
12481;DHT22;6305;48.398;11.762;2023-09-07T10:18:10;42.70;31.90
12481;DHT22;6305;48.398;11.762;2023-09-07T10:20:49;43.30;30.10
12481;DHT22;6305;48.398;11.762;2023-09-07T10:23:16;43.60;30.20
12481;DHT22;6305;48.398;11.762;2023-09-07T10:25:47;44.10;29.90
12481;DHT22;6305;48.398;11.762;2023-09-07T10:28:24;44.60;29.10
12481;DHT22;6305;48.398;11.762;2023-09-07T10:31:01;44.30;29.30
12481;DHT22;6305;48.398;11.762;2023-09-07T10:33:29;44.20;29.40
12481;DHT22;6305;48.398;11.762;2023-09-07T10:35:56;44.80;29.60
12481;DHT22;6305;48.398;11.762;2023-09-07T10:38:23;45.20;28.60
12481;DHT22;6305;48.398;11.762;2023-09-07T10:40:55;45.70;28.10
12481;DHT22;6305;48.398;11.762;2023-09-07T10:43:25;45.50;27.90
12481;DHT22;6305;48.398;11.762;2023-09-07T10:45:52;45.20;28.00
12481;DHT22;6305;48.398;11.762;2023-09-07T10:48:19;44.80;28.30
12481;DHT22;6305;48.398;11.762;2023-09-07T10:50:47;44.60;28.40
12481;DHT22;6305;48.398;11.762;2023-09-07T10:53:14;44.00;28.80
12481;DHT22;6305;48.398;11.762;2023-09-07T10:55:41;44.20;29.30
12481;DHT22;6305;48.398;11.762;2023-09-07T10:58:10;44.30;29.30
12481;DHT22;6305;48.398;11.762;2023-09-07T11:00:38;44.70;29.00
12481;DHT22;6305;48.398;11.762;2023-09-07T11:03:09;45.00;27.70
12481;DHT22;6305;48.398;11.762;2023-09-07T11:05:37;44.90;28.20
12481;DHT22;6305;48.398;11.762;2023-09-07T11:08:06;45.10;27.90
12481;DHT22;6305;48.398;11.762;2023-09-07T11:10:34;44.90;27.90
12481;DHT22;6305;48.398;11.762;2023-09-07T11:13:04;44.70;28.10
12481;DHT22;6305;48.398;11.762;2023-09-07T11:15:32;44.60;27.90
12481;DHT22;6305;48.398;11.762;2023-09-07T11:18:06;44.50;28.20
12481;DHT22;6305;48.398;11.762;2023-09-07T11:20:35;44.50;27.70
12481;DHT22;6305;48.398;11.762;2023-09-07T11:23:02;44.70;27.70
12481;DHT22;6305;48.398;11.762;2023-09-07T11:25:34;44.70;27.50
12481;DHT22;6305;48.398;11.762;2023-09-07T11:28:02;44.70;27.00
12481;DHT22;6305;48.398;11.762;2023-09-07T11:30:30;44.90;27.60
12481;DHT22;6305;48.398;11.762;2023-09-07T11:33:01;45.40;27.50
12481;DHT22;6305;48.398;11.762;2023-09-07T11:35:30;45.70;27.20
12481;DHT22;6305;48.398;11.762;2023-09-07T11:37:56;46.10;26.60
12481;DHT22;6305;48.398;11.762;2023-09-07T11:40:23;45.60;27.00
12481;DHT22;6305;48.398;11.762;2023-09-07T11:42:50;45.50;27.10
12481;DHT22;6305;48.398;11.762;2023-09-07T11:45:17;45.50;26.20
12481;DHT22;6305;48.398;11.762;2023-09-07T11:47:45;45.60;25.80
12481;DHT22;6305;48.398;11.762;2023-09-07T11:50:13;45.50;25.90
12481;DHT22;6305;48.398;11.762;2023-09-07T11:52:41;45.50;25.90
12481;DHT22;6305;48.398;11.762;2023-09-07T11:55:08;45.60;25.80
12481;DHT22;6305;48.398;11.762;2023-09-07T11:57:36;45.60;25.90
12481;DHT22;6305;48.398;11.762;2023-09-07T12:00:05;45.40;26.00
12481;DHT22;6305;48.398;11.762;2023-09-07T12:02:38;44.80;26.80
12481;DHT22;6305;48.398;11.762;2023-09-07T12:05:06;44.60;26.70
12481;DHT22;6305;48.398;11.762;2023-09-07T12:07:35;44.80;26.60
12481;DHT22;6305;48.398;11.762;2023-09-07T12:10:04;44.70;26.90
12481;DHT22;6305;48.398;11.762;2023-09-07T12:12:31;44.50;26.00
12481;DHT22;6305;48.398;11.762;2023-09-07T12:14:58;44.30;26.40
12481;DHT22;6305;48.398;11.762;2023-09-07T12:17:26;44.30;26.50
12481;DHT22;6305;48.398;11.762;2023-09-07T12:19:53;44.20;27.20
12481;DHT22;6305;48.398;11.762;2023-09-07T12:22:20;44.20;27.10
12481;DHT22;6305;48.398;11.762;2023-09-07T12:24:47;44.00;26.40
12481;DHT22;6305;48.398;11.762;2023-09-07T12:27:15;43.70;27.10
12481;DHT22;6305;48.398;11.762;2023-09-07T12:29:42;43.30;27.30
12481;DHT22;6305;48.398;11.762;2023-09-07T12:32:09;42.80;27.40
12481;DHT22;6305;48.398;11.762;2023-09-07T12:34:36;43.10;27.30
12481;DHT22;6305;48.398;11.762;2023-09-07T12:37:04;43.50;27.30
12481;DHT22;6305;48.398;11.762;2023-09-07T12:39:32;43.60;27.20
12481;DHT22;6305;48.398;11.762;2023-09-07T12:41:58;43.50;27.20
12481;DHT22;6305;48.398;11.762;2023-09-07T12:44:27;43.80;27.10
12481;DHT22;6305;48.398;11.762;2023-09-07T12:46:54;44.00;27.40
12481;DHT22;6305;48.398;11.762;2023-09-07T12:49:21;44.20;27.40
12481;DHT22;6305;48.398;11.762;2023-09-07T12:51:48;44.40;26.70
12481;DHT22;6305;48.398;11.762;2023-09-07T12:54:15;44.30;26.40
12481;DHT22;6305;48.398;11.762;2023-09-07T12:56:43;44.40;26.50
12481;DHT22;6305;48.398;11.762;2023-09-07T12:59:10;44.00;27.10
12481;DHT22;6305;48.398;11.762;2023-09-07T13:01:38;42.90;27.50
12481;DHT22;6305;48.398;11.762;2023-09-07T13:04:06;42.40;27.90
12481;DHT22;6305;48.398;11.762;2023-09-07T13:06:33;42.50;28.00
12481;DHT22;6305;48.398;11.762;2023-09-07T13:09:00;42.70;27.70
12481;DHT22;6305;48.398;11.762;2023-09-07T13:11:27;42.50;27.60
12481;DHT22;6305;48.398;11.762;2023-09-07T13:13:54;42.40;27.70
12481;DHT22;6305;48.398;11.762;2023-09-07T13:16:21;42.70;27.30
12481;DHT22;6305;48.398;11.762;2023-09-07T13:18:49;43.10;27.40
12481;DHT22;6305;48.398;11.762;2023-09-07T13:21:16;43.30;27.10
12481;DHT22;6305;48.398;11.762;2023-09-07T13:23:43;43.30;26.90
12481;DHT22;6305;48.398;11.762;2023-09-07T13:26:12;43.20;27.10
12481;DHT22;6305;48.398;11.762;2023-09-07T13:28:39;42.90;27.20
12481;DHT22;6305;48.398;11.762;2023-09-07T13:31:06;42.90;27.30
12481;DHT22;6305;48.398;11.762;2023-09-07T13:33:33;43.10;27.10
12481;DHT22;6305;48.398;11.762;2023-09-07T13:36:02;43.40;26.80
12481;DHT22;6305;48.398;11.762;2023-09-07T13:38:29;43.10;27.20
12481;DHT22;6305;48.398;11.762;2023-09-07T13:40:55;42.90;26.60
12481;DHT22;6305;48.398;11.762;2023-09-07T13:43:22;42.40;26.60
12481;DHT22;6305;48.398;11.762;2023-09-07T13:45:49;41.80;27.30
12481;DHT22;6305;48.398;11.762;2023-09-07T13:48:16;41.70;28.10
12481;DHT22;6305;48.398;11.762;2023-09-07T13:50:43;41.60;27.90
12481;DHT22;6305;48.398;11.762;2023-09-07T13:53:11;41.80;27.90
12481;DHT22;6305;48.398;11.762;2023-09-07T13:55:38;41.90;27.60
12481;DHT22;6305;48.398;11.762;2023-09-07T13:58:07;41.70;27.70
12481;DHT22;6305;48.398;11.762;2023-09-07T14:00:34;41.80;27.70
12481;DHT22;6305;48.398;11.762;2023-09-07T14:03:01;41.90;28.20
12481;DHT22;6305;48.398;11.762;2023-09-07T14:05:28;42.00;27.60
12481;DHT22;6305;48.398;11.762;2023-09-07T14:07:55;41.90;27.10
12481;DHT22;6305;48.398;11.762;2023-09-07T14:10:24;41.40;27.60
12481;DHT22;6305;48.398;11.762;2023-09-07T14:12:51;41.10;27.70
12481;DHT22;6305;48.398;11.762;2023-09-07T14:15:18;41.00;27.60
12481;DHT22;6305;48.398;11.762;2023-09-07T14:17:45;41.00;28.20
12481;DHT22;6305;48.398;11.762;2023-09-07T14:20:12;41.00;27.90
12481;DHT22;6305;48.398;11.762;2023-09-07T14:22:39;41.10;27.90
12481;DHT22;6305;48.398;11.762;2023-09-07T14:25:06;41.20;27.80
12481;DHT22;6305;48.398;11.762;2023-09-07T14:27:35;41.20;27.60
12481;DHT22;6305;48.398;11.762;2023-09-07T14:30:02;41.00;27.60
12481;DHT22;6305;48.398;11.762;2023-09-07T14:32:30;40.90;27.80
12481;DHT22;6305;48.398;11.762;2023-09-07T14:34:57;40.60;27.60
12481;DHT22;6305;48.398;11.762;2023-09-07T14:37:24;40.30;28.00
12481;DHT22;6305;48.398;11.762;2023-09-07T14:39:51;40.10;28.60
12481;DHT22;6305;48.398;11.762;2023-09-07T14:42:23;40.30;28.00
12481;DHT22;6305;48.398;11.762;2023-09-07T14:44:52;40.00;27.90
12481;DHT22;6305;48.398;11.762;2023-09-07T14:47:19;39.90;28.00
12481;DHT22;6305;48.398;11.762;2023-09-07T14:49:51;39.70;28.20
12481;DHT22;6305;48.398;11.762;2023-09-07T14:52:18;39.80;28.80
12481;DHT22;6305;48.398;11.762;2023-09-07T14:54:47;39.80;28.20
12481;DHT22;6305;48.398;11.762;2023-09-07T14:57:14;39.60;28.60
12481;DHT22;6305;48.398;11.762;2023-09-07T14:59:41;39.50;28.60
12481;DHT22;6305;48.398;11.762;2023-09-07T15:02:09;39.00;29.10
12481;DHT22;6305;48.398;11.762;2023-09-07T15:04:36;38.90;28.80
12481;DHT22;6305;48.398;11.762;2023-09-07T15:07:04;38.70;29.20
12481;DHT22;6305;48.398;11.762;2023-09-07T15:09:31;38.60;29.50
12481;DHT22;6305;48.398;11.762;2023-09-07T15:11:58;38.60;29.90
12481;DHT22;6305;48.398;11.762;2023-09-07T15:14:25;38.60;29.50
12481;DHT22;6305;48.398;11.762;2023-09-07T15:16:52;38.40;29.60
12481;DHT22;6305;48.398;11.762;2023-09-07T15:19:20;38.20;29.60
12481;DHT22;6305;48.398;11.762;2023-09-07T15:21:47;38.00;29.80
12481;DHT22;6305;48.398;11.762;2023-09-07T15:24:14;37.80;30.00
12481;DHT22;6305;48.398;11.762;2023-09-07T15:26:42;37.40;30.80
12481;DHT22;6305;48.398;11.762;2023-09-07T15:29:09;36.60;31.60
12481;DHT22;6305;48.398;11.762;2023-09-07T15:31:36;35.40;32.40
12481;DHT22;6305;48.398;11.762;2023-09-07T15:34:03;33.70;34.70